sensor_id;sensor_type;location;lat;lon;timestamp;pressure;altitude;pressure_sealevel;temperature
71081;BMP180;58740;50.672;18.690;2023-01-13T00:01:28;98650.60;;;6.80
71081;BMP180;58740;50.672;18.690;2023-01-13T00:03:56;98641.00;;;6.80
71081;BMP180;58740;50.672;18.690;2023-01-13T00:06:24;98646.80;;;6.90
71081;BMP180;58740;50.672;18.690;2023-01-13T00:08:53;98648.20;;;6.90
71081;BMP180;58740;50.672;18.690;2023-01-13T00:11:22;98646.40;;;6.90
71081;BMP180;58740;50.672;18.690;2023-01-13T00:13:49;98646.00;;;6.90
71081;BMP180;58740;50.672;18.690;2023-01-13T00:16:19;98646.80;;;6.90
71081;BMP180;58740;50.672;18.690;2023-01-13T00:18:48;98653.60;;;6.90
71081;BMP180;58740;50.672;18.690;2023-01-13T00:21:23;98654.00;;;6.90
71081;BMP180;58740;50.672;18.690;2023-01-13T00:23:53;98655.80;;;6.90
71081;BMP180;58740;50.672;18.690;2023-01-13T00:26:27;98653.00;;;6.90
71081;BMP180;58740;50.672;18.690;2023-01-13T00:29:00;98653.00;;;6.90
71081;BMP180;58740;50.672;18.690;2023-01-13T00:31:28;98653.20;;;6.90
71081;BMP180;58740;50.672;18.690;2023-01-13T00:33:58;98653.40;;;6.92
71081;BMP180;58740;50.672;18.690;2023-01-13T00:36:27;98641.20;;;7.00
71081;BMP180;58740;50.672;18.690;2023-01-13T00:38:55;98647.00;;;7.00
71081;BMP180;58740;50.672;18.690;2023-01-13T00:41:25;98645.00;;;7.00
71081;BMP180;58740;50.672;18.690;2023-01-13T00:43:53;98641.60;;;7.00
71081;BMP180;58740;50.672;18.690;2023-01-13T00:46:21;98641.40;;;7.00
71081;BMP180;58740;50.672;18.690;2023-01-13T00:48:49;98638.40;;;7.00
71081;BMP180;58740;50.672;18.690;2023-01-13T00:51:20;98642.80;;;7.00
71081;BMP180;58740;50.672;18.690;2023-01-13T00:53:50;98644.20;;;7.00
71081;BMP180;58740;50.672;18.690;2023-01-13T00:56:22;98640.80;;;7.06
71081;BMP180;58740;50.672;18.690;2023-01-13T00:59:11;98631.60;;;7.10
71081;BMP180;58740;50.672;18.690;2023-01-13T01:01:40;98630.60;;;7.10
71081;BMP180;58740;50.672;18.690;2023-01-13T01:04:08;98623.60;;;7.10
71081;BMP180;58740;50.672;18.690;2023-01-13T01:06:36;98622.00;;;7.10
71081;BMP180;58740;50.672;18.690;2023-01-13T01:09:04;98623.60;;;7.10
71081;BMP180;58740;50.672;18.690;2023-01-13T01:11:33;98623.60;;;7.10
71081;BMP180;58740;50.672;18.690;2023-01-13T01:14:02;98624.00;;;7.10
71081;BMP180;58740;50.672;18.690;2023-01-13T01:16:32;98618.20;;;7.10
71081;BMP180;58740;50.672;18.690;2023-01-13T01:19:00;98626.60;;;7.10
71081;BMP180;58740;50.672;18.690;2023-01-13T01:21:28;98614.00;;;7.10
71081;BMP180;58740;50.672;18.690;2023-01-13T01:24:00;98611.60;;;7.12
71081;BMP180;58740;50.672;18.690;2023-01-13T01:26:29;98603.00;;;7.10
71081;BMP180;58740;50.672;18.690;2023-01-13T01:28:58;98599.00;;;7.14
71081;BMP180;58740;50.672;18.690;2023-01-13T01:31:30;98604.00;;;7.10
71081;BMP180;58740;50.672;18.690;2023-01-13T01:34:00;98598.00;;;7.10
71081;BMP180;58740;50.672;18.690;2023-01-13T01:36:28;98598.60;;;7.10
71081;BMP180;58740;50.672;18.690;2023-01-13T01:38:58;98590.80;;;7.10
71081;BMP180;58740;50.672;18.690;2023-01-13T01:41:30;98591.00;;;7.10
71081;BMP180;58740;50.672;18.690;2023-01-13T01:46:41;98583.80;;;7.10
71081;BMP180;58740;50.672;18.690;2023-01-13T01:49:39;98586.00;;;7.10
71081;BMP180;58740;50.672;18.690;2023-01-13T01:52:17;98584.80;;;7.10
71081;BMP180;58740;50.672;18.690;2023-01-13T01:54:51;98578.00;;;7.10
71081;BMP180;58740;50.672;18.690;2023-01-13T01:57:27;98574.40;;;7.10
71081;BMP180;58740;50.672;18.690;2023-01-13T01:59:58;98581.00;;;7.10
71081;BMP180;58740;50.672;18.690;2023-01-13T02:02:29;98572.00;;;7.10
71081;BMP180;58740;50.672;18.690;2023-01-13T02:04:58;98574.40;;;7.10
71081;BMP180;58740;50.672;18.690;2023-01-13T02:07:30;98564.20;;;7.10
71081;BMP180;58740;50.672;18.690;2023-01-13T02:10:04;98561.00;;;7.10
71081;BMP180;58740;50.672;18.690;2023-01-13T02:12:33;98556.80;;;7.10
71081;BMP180;58740;50.672;18.690;2023-01-13T02:15:09;98554.80;;;7.10
71081;BMP180;58740;50.672;18.690;2023-01-13T02:33:40;98536.00;;;7.10
71081;BMP180;58740;50.672;18.690;2023-01-13T02:39:02;98525.60;;;7.10
71081;BMP180;58740;50.672;18.690;2023-01-13T02:41:53;98522.40;;;7.10
71081;BMP180;58740;50.672;18.690;2023-01-13T02:45:06;98518.00;;;7.10
71081;BMP180;58740;50.672;18.690;2023-01-13T02:47:38;98521.20;;;7.10
71081;BMP180;58740;50.672;18.690;2023-01-13T02:50:14;98521.60;;;7.10
71081;BMP180;58740;50.672;18.690;2023-01-13T02:53:07;98511.60;;;7.10
71081;BMP180;58740;50.672;18.690;2023-01-13T02:55:44;98503.40;;;7.10
71081;BMP180;58740;50.672;18.690;2023-01-13T02:58:21;98500.60;;;7.10
71081;BMP180;58740;50.672;18.690;2023-01-13T03:00:50;98505.00;;;7.10
71081;BMP180;58740;50.672;18.690;2023-01-13T03:03:18;98504.20;;;7.10
71081;BMP180;58740;50.672;18.690;2023-01-13T03:05:51;98500.40;;;7.10
71081;BMP180;58740;50.672;18.690;2023-01-13T03:08:32;98508.80;;;7.16
71081;BMP180;58740;50.672;18.690;2023-01-13T03:11:11;98506.00;;;7.10
71081;BMP180;58740;50.672;18.690;2023-01-13T03:19:43;98491.80;;;7.10
71081;BMP180;58740;50.672;18.690;2023-01-13T03:22:29;98488.60;;;7.06
71081;BMP180;58740;50.672;18.690;2023-01-13T03:25:10;98488.00;;;7.00
71081;BMP180;58740;50.672;18.690;2023-01-13T03:30:26;98487.00;;;7.00
71081;BMP180;58740;50.672;18.690;2023-01-13T03:33:03;98487.40;;;7.00
71081;BMP180;58740;50.672;18.690;2023-01-13T03:35:43;98482.80;;;7.00
71081;BMP180;58740;50.672;18.690;2023-01-13T03:38:24;98480.40;;;7.00
71081;BMP180;58740;50.672;18.690;2023-01-13T03:41:06;98490.20;;;7.00
71081;BMP180;58740;50.672;18.690;2023-01-13T03:43:45;98489.20;;;6.92
71081;BMP180;58740;50.672;18.690;2023-01-13T03:47:05;98492.60;;;6.90
71081;BMP180;58740;50.672;18.690;2023-01-13T03:49:46;98491.20;;;6.90
71081;BMP180;58740;50.672;18.690;2023-01-13T03:52:30;98489.40;;;6.90
71081;BMP180;58740;50.672;18.690;2023-01-13T03:55:07;98491.80;;;6.92
71081;BMP180;58740;50.672;18.690;2023-01-13T03:57:48;98488.80;;;6.96
71081;BMP180;58740;50.672;18.690;2023-01-13T04:00:18;98490.20;;;6.94
71081;BMP180;58740;50.672;18.690;2023-01-13T04:02:59;98488.60;;;6.96
71081;BMP180;58740;50.672;18.690;2023-01-13T04:05:32;98491.60;;;7.00
71081;BMP180;58740;50.672;18.690;2023-01-13T04:08:13;98494.80;;;7.00
71081;BMP180;58740;50.672;18.690;2023-01-13T04:11:05;98487.00;;;7.00
71081;BMP180;58740;50.672;18.690;2023-01-13T04:13:38;98488.80;;;7.00
71081;BMP180;58740;50.672;18.690;2023-01-13T04:16:07;98485.00;;;7.00
71081;BMP180;58740;50.672;18.690;2023-01-13T04:18:38;98474.00;;;7.02
71081;BMP180;58740;50.672;18.690;2023-01-13T04:21:08;98472.20;;;7.02
71081;BMP180;58740;50.672;18.690;2023-01-13T04:23:35;98462.40;;;7.02
71081;BMP180;58740;50.672;18.690;2023-01-13T04:26:03;98457.80;;;7.00
71081;BMP180;58740;50.672;18.690;2023-01-13T04:28:31;98462.20;;;7.00
71081;BMP180;58740;50.672;18.690;2023-01-13T04:31:01;98461.60;;;7.00
71081;BMP180;58740;50.672;18.690;2023-01-13T04:33:29;98468.40;;;7.00
71081;BMP180;58740;50.672;18.690;2023-01-13T04:35:57;98469.40;;;7.00
71081;BMP180;58740;50.672;18.690;2023-01-13T04:38:24;98476.40;;;7.00
71081;BMP180;58740;50.672;18.690;2023-01-13T04:40:52;98470.00;;;7.00
71081;BMP180;58740;50.672;18.690;2023-01-13T04:43:20;98469.40;;;7.00
71081;BMP180;58740;50.672;18.690;2023-01-13T04:45:48;98471.00;;;7.00
71081;BMP180;58740;50.672;18.690;2023-01-13T04:48:15;98463.60;;;7.00
71081;BMP180;58740;50.672;18.690;2023-01-13T04:50:43;98462.20;;;7.00
71081;BMP180;58740;50.672;18.690;2023-01-13T04:53:11;98471.40;;;7.00
71081;BMP180;58740;50.672;18.690;2023-01-13T04:55:39;98474.20;;;7.00
71081;BMP180;58740;50.672;18.690;2023-01-13T04:58:09;98472.20;;;7.00
71081;BMP180;58740;50.672;18.690;2023-01-13T05:00:37;98478.60;;;7.00
71081;BMP180;58740;50.672;18.690;2023-01-13T05:03:05;98483.80;;;7.00
71081;BMP180;58740;50.672;18.690;2023-01-13T05:05:33;98483.80;;;7.00
71081;BMP180;58740;50.672;18.690;2023-01-13T05:08:01;98485.80;;;7.00
71081;BMP180;58740;50.672;18.690;2023-01-13T05:10:29;98488.20;;;7.00
71081;BMP180;58740;50.672;18.690;2023-01-13T05:12:57;98481.60;;;7.00
71081;BMP180;58740;50.672;18.690;2023-01-13T05:15:43;98491.20;;;7.00
71081;BMP180;58740;50.672;18.690;2023-01-13T05:18:33;98489.20;;;7.00
71081;BMP180;58740;50.672;18.690;2023-01-13T05:21:00;98491.60;;;6.98
71081;BMP180;58740;50.672;18.690;2023-01-13T05:23:28;98492.40;;;6.90
71081;BMP180;58740;50.672;18.690;2023-01-13T05:26:15;98483.40;;;6.90
71081;BMP180;58740;50.672;18.690;2023-01-13T05:28:43;98487.40;;;6.98
71081;BMP180;58740;50.672;18.690;2023-01-13T05:31:10;98484.60;;;6.96
71081;BMP180;58740;50.672;18.690;2023-01-13T05:33:41;98486.80;;;7.00
71081;BMP180;58740;50.672;18.690;2023-01-13T05:36:09;98484.20;;;7.00
71081;BMP180;58740;50.672;18.690;2023-01-13T05:38:36;98490.20;;;7.00
71081;BMP180;58740;50.672;18.690;2023-01-13T05:41:04;98486.60;;;7.00
71081;BMP180;58740;50.672;18.690;2023-01-13T05:43:51;98491.20;;;7.00
71081;BMP180;58740;50.672;18.690;2023-01-13T05:46:18;98488.80;;;7.00
71081;BMP180;58740;50.672;18.690;2023-01-13T05:48:46;98483.40;;;7.00
71081;BMP180;58740;50.672;18.690;2023-01-13T05:51:14;98486.80;;;7.00
71081;BMP180;58740;50.672;18.690;2023-01-13T05:53:42;98486.20;;;7.06
71081;BMP180;58740;50.672;18.690;2023-01-13T05:56:10;98483.20;;;7.10
71081;BMP180;58740;50.672;18.690;2023-01-13T05:58:38;98483.20;;;7.10
71081;BMP180;58740;50.672;18.690;2023-01-13T06:01:08;98478.60;;;7.10
71081;BMP180;58740;50.672;18.690;2023-01-13T06:03:36;98483.60;;;7.10
71081;BMP180;58740;50.672;18.690;2023-01-13T06:06:04;98483.60;;;7.10
71081;BMP180;58740;50.672;18.690;2023-01-13T06:08:35;98492.40;;;7.10
71081;BMP180;58740;50.672;18.690;2023-01-13T06:11:07;98495.60;;;7.10
71081;BMP180;58740;50.672;18.690;2023-01-13T06:13:35;98491.40;;;7.10
71081;BMP180;58740;50.672;18.690;2023-01-13T06:16:03;98496.60;;;7.10
71081;BMP180;58740;50.672;18.690;2023-01-13T06:18:31;98498.20;;;7.10
71081;BMP180;58740;50.672;18.690;2023-01-13T06:20:59;98492.60;;;7.10
71081;BMP180;58740;50.672;18.690;2023-01-13T06:23:27;98488.00;;;7.10
71081;BMP180;58740;50.672;18.690;2023-01-13T06:26:17;98489.60;;;7.10
71081;BMP180;58740;50.672;18.690;2023-01-13T06:28:46;98484.20;;;7.10
71081;BMP180;58740;50.672;18.690;2023-01-13T06:31:15;98494.20;;;7.10
71081;BMP180;58740;50.672;18.690;2023-01-13T06:33:49;98486.80;;;7.10
71081;BMP180;58740;50.672;18.690;2023-01-13T06:36:37;98482.40;;;7.12
71081;BMP180;58740;50.672;18.690;2023-01-13T06:39:09;98481.60;;;7.20
71081;BMP180;58740;50.672;18.690;2023-01-13T06:41:38;98480.60;;;7.18
71081;BMP180;58740;50.672;18.690;2023-01-13T06:44:25;98483.80;;;7.18
71081;BMP180;58740;50.672;18.690;2023-01-13T06:46:52;98487.40;;;7.16
71081;BMP180;58740;50.672;18.690;2023-01-13T06:49:21;98490.60;;;7.20
71081;BMP180;58740;50.672;18.690;2023-01-13T06:51:49;98486.20;;;7.20
71081;BMP180;58740;50.672;18.690;2023-01-13T06:54:17;98487.60;;;7.20
71081;BMP180;58740;50.672;18.690;2023-01-13T06:56:45;98481.80;;;7.20
71081;BMP180;58740;50.672;18.690;2023-01-13T06:59:12;98490.00;;;7.20
71081;BMP180;58740;50.672;18.690;2023-01-13T07:01:40;98497.20;;;7.20
71081;BMP180;58740;50.672;18.690;2023-01-13T07:04:08;98495.40;;;7.20
71081;BMP180;58740;50.672;18.690;2023-01-13T07:06:36;98502.20;;;7.20
71081;BMP180;58740;50.672;18.690;2023-01-13T07:09:04;98506.00;;;7.20
71081;BMP180;58740;50.672;18.690;2023-01-13T07:11:33;98503.80;;;7.20
71081;BMP180;58740;50.672;18.690;2023-01-13T07:14:01;98498.60;;;7.20
71081;BMP180;58740;50.672;18.690;2023-01-13T07:16:47;98499.40;;;7.20
71081;BMP180;58740;50.672;18.690;2023-01-13T07:19:15;98501.00;;;7.20
71081;BMP180;58740;50.672;18.690;2023-01-13T07:21:50;98510.60;;;7.20
71081;BMP180;58740;50.672;18.690;2023-01-13T07:24:19;98509.80;;;7.20
71081;BMP180;58740;50.672;18.690;2023-01-13T07:26:47;98506.00;;;7.20
71081;BMP180;58740;50.672;18.690;2023-01-13T07:29:15;98509.80;;;7.20
71081;BMP180;58740;50.672;18.690;2023-01-13T07:31:43;98507.00;;;7.20
71081;BMP180;58740;50.672;18.690;2023-01-13T07:34:11;98503.60;;;7.20
71081;BMP180;58740;50.672;18.690;2023-01-13T07:36:39;98501.00;;;7.20
71081;BMP180;58740;50.672;18.690;2023-01-13T07:39:07;98499.20;;;7.22
71081;BMP180;58740;50.672;18.690;2023-01-13T07:41:35;98501.20;;;7.30
71081;BMP180;58740;50.672;18.690;2023-01-13T07:44:23;98497.00;;;7.30
71081;BMP180;58740;50.672;18.690;2023-01-13T07:46:50;98490.60;;;7.30
71081;BMP180;58740;50.672;18.690;2023-01-13T07:49:18;98495.60;;;7.30
71081;BMP180;58740;50.672;18.690;2023-01-13T07:51:46;98493.80;;;7.30
71081;BMP180;58740;50.672;18.690;2023-01-13T07:54:14;98502.00;;;7.30
71081;BMP180;58740;50.672;18.690;2023-01-13T07:56:42;98496.20;;;7.30
71081;BMP180;58740;50.672;18.690;2023-01-13T07:59:09;98504.00;;;7.30
71081;BMP180;58740;50.672;18.690;2023-01-13T08:01:37;98493.80;;;7.30
71081;BMP180;58740;50.672;18.690;2023-01-13T08:04:05;98495.20;;;7.40
71081;BMP180;58740;50.672;18.690;2023-01-13T08:06:33;98495.20;;;7.40
71081;BMP180;58740;50.672;18.690;2023-01-13T08:09:03;98489.80;;;7.40
71081;BMP180;58740;50.672;18.690;2023-01-13T08:11:30;98492.60;;;7.40
71081;BMP180;58740;50.672;18.690;2023-01-13T08:13:58;98496.80;;;7.40
71081;BMP180;58740;50.672;18.690;2023-01-13T08:16:26;98499.60;;;7.40
71081;BMP180;58740;50.672;18.690;2023-01-13T08:18:54;98505.80;;;7.40
71081;BMP180;58740;50.672;18.690;2023-01-13T08:21:21;98504.40;;;7.40
71081;BMP180;58740;50.672;18.690;2023-01-13T08:23:49;98507.60;;;7.44
71081;BMP180;58740;50.672;18.690;2023-01-13T08:26:17;98504.80;;;7.50
71081;BMP180;58740;50.672;18.690;2023-01-13T08:28:45;98504.00;;;7.50
71081;BMP180;58740;50.672;18.690;2023-01-13T08:31:15;98505.40;;;7.50
71081;BMP180;58740;50.672;18.690;2023-01-13T08:33:43;98505.40;;;7.50
71081;BMP180;58740;50.672;18.690;2023-01-13T08:36:12;98507.80;;;7.50
71081;BMP180;58740;50.672;18.690;2023-01-13T08:38:40;98511.00;;;7.50
71081;BMP180;58740;50.672;18.690;2023-01-13T08:41:15;98514.20;;;7.50
71081;BMP180;58740;50.672;18.690;2023-01-13T08:44:04;98520.20;;;7.52
71081;BMP180;58740;50.672;18.690;2023-01-13T08:46:31;98515.00;;;7.60
71081;BMP180;58740;50.672;18.690;2023-01-13T08:49:00;98513.40;;;7.60
71081;BMP180;58740;50.672;18.690;2023-01-13T08:51:27;98512.00;;;7.60
71081;BMP180;58740;50.672;18.690;2023-01-13T08:53:55;98518.20;;;7.70
71081;BMP180;58740;50.672;18.690;2023-01-13T08:56:23;98513.60;;;7.70
71081;BMP180;58740;50.672;18.690;2023-01-13T08:58:51;98513.60;;;7.70
71081;BMP180;58740;50.672;18.690;2023-01-13T09:01:21;98508.80;;;7.70
71081;BMP180;58740;50.672;18.690;2023-01-13T09:03:50;98513.80;;;7.80
71081;BMP180;58740;50.672;18.690;2023-01-13T09:06:18;98516.20;;;7.80
71081;BMP180;58740;50.672;18.690;2023-01-13T09:08:46;98507.80;;;7.80
71081;BMP180;58740;50.672;18.690;2023-01-13T09:11:19;98512.20;;;7.90
71081;BMP180;58740;50.672;18.690;2023-01-13T09:14:06;98511.80;;;7.90
71081;BMP180;58740;50.672;18.690;2023-01-13T09:16:34;98513.00;;;7.90
71081;BMP180;58740;50.672;18.690;2023-01-13T09:19:02;98503.40;;;7.90
71081;BMP180;58740;50.672;18.690;2023-01-13T09:21:29;98502.60;;;7.90
71081;BMP180;58740;50.672;18.690;2023-01-13T09:23:57;98504.40;;;7.90
71081;BMP180;58740;50.672;18.690;2023-01-13T09:26:25;98504.20;;;7.90
71081;BMP180;58740;50.672;18.690;2023-01-13T09:28:53;98497.60;;;8.00
71081;BMP180;58740;50.672;18.690;2023-01-13T09:31:21;98496.40;;;8.00
71081;BMP180;58740;50.672;18.690;2023-01-13T09:33:49;98493.40;;;8.10
71081;BMP180;58740;50.672;18.690;2023-01-13T09:36:35;98499.80;;;8.20
71081;BMP180;58740;50.672;18.690;2023-01-13T09:39:04;98486.80;;;8.28
71081;BMP180;58740;50.672;18.690;2023-01-13T09:41:46;98487.80;;;8.30
71081;BMP180;58740;50.672;18.690;2023-01-13T09:47:31;98493.00;;;8.40
71081;BMP180;58740;50.672;18.690;2023-01-13T09:52:43;98479.20;;;8.50
71081;BMP180;58740;50.672;18.690;2023-01-13T09:55:22;98481.40;;;8.50
71081;BMP180;58740;50.672;18.690;2023-01-13T09:57:51;98479.80;;;8.50
71081;BMP180;58740;50.672;18.690;2023-01-13T10:03:22;98477.40;;;8.50
71081;BMP180;58740;50.672;18.690;2023-01-13T10:06:23;98476.20;;;8.50
71081;BMP180;58740;50.672;18.690;2023-01-13T10:08:56;98477.40;;;8.50
71081;BMP180;58740;50.672;18.690;2023-01-13T10:11:37;98466.00;;;8.50
71081;BMP180;58740;50.672;18.690;2023-01-13T10:14:44;98470.80;;;8.50
71081;BMP180;58740;50.672;18.690;2023-01-13T10:17:40;98461.00;;;8.50
71081;BMP180;58740;50.672;18.690;2023-01-13T10:23:33;98464.60;;;8.60
71081;BMP180;58740;50.672;18.690;2023-01-13T10:28:56;98453.00;;;8.66
71081;BMP180;58740;50.672;18.690;2023-01-13T10:31:25;98455.80;;;8.60
71081;BMP180;58740;50.672;18.690;2023-01-13T10:34:02;98446.20;;;8.60
71081;BMP180;58740;50.672;18.690;2023-01-13T10:36:33;98445.20;;;8.60
71081;BMP180;58740;50.672;18.690;2023-01-13T10:39:14;98445.40;;;8.60
71081;BMP180;58740;50.672;18.690;2023-01-13T10:41:42;98448.00;;;8.60
71081;BMP180;58740;50.672;18.690;2023-01-13T10:44:18;98437.60;;;8.60
71081;BMP180;58740;50.672;18.690;2023-01-13T10:46:58;98440.20;;;8.60
71081;BMP180;58740;50.672;18.690;2023-01-13T10:49:37;98432.60;;;8.60
71081;BMP180;58740;50.672;18.690;2023-01-13T10:52:26;98439.40;;;8.64
71081;BMP180;58740;50.672;18.690;2023-01-13T10:54:55;98431.20;;;8.68
71081;BMP180;58740;50.672;18.690;2023-01-13T10:57:25;98429.80;;;8.70
71081;BMP180;58740;50.672;18.690;2023-01-13T10:59:54;98428.00;;;8.70
71081;BMP180;58740;50.672;18.690;2023-01-13T11:02:33;98425.40;;;8.72
71081;BMP180;58740;50.672;18.690;2023-01-13T11:05:21;98431.00;;;8.82
71081;BMP180;58740;50.672;18.690;2023-01-13T11:07:51;98431.80;;;9.00
71081;BMP180;58740;50.672;18.690;2023-01-13T11:10:28;98426.40;;;9.00
71081;BMP180;58740;50.672;18.690;2023-01-13T11:13:26;98417.60;;;9.10
71081;BMP180;58740;50.672;18.690;2023-01-13T11:16:06;98416.40;;;9.20
71081;BMP180;58740;50.672;18.690;2023-01-13T11:18:41;98410.60;;;9.20
71081;BMP180;58740;50.672;18.690;2023-01-13T11:21:29;98416.60;;;9.20
71081;BMP180;58740;50.672;18.690;2023-01-13T11:26:58;98407.20;;;9.30
71081;BMP180;58740;50.672;18.690;2023-01-13T11:29:37;98409.00;;;9.30
71081;BMP180;58740;50.672;18.690;2023-01-13T11:32:36;98412.60;;;9.40
71081;BMP180;58740;50.672;18.690;2023-01-13T11:35:16;98404.40;;;9.40
71081;BMP180;58740;50.672;18.690;2023-01-13T11:37:57;98399.60;;;9.50
71081;BMP180;58740;50.672;18.690;2023-01-13T11:40:48;98400.80;;;9.50
71081;BMP180;58740;50.672;18.690;2023-01-13T11:46:29;98404.20;;;9.60
71081;BMP180;58740;50.672;18.690;2023-01-13T11:48:59;98409.40;;;9.58
71081;BMP180;58740;50.672;18.690;2023-01-13T11:51:48;98401.40;;;9.60
71081;BMP180;58740;50.672;18.690;2023-01-13T11:54:52;98411.40;;;9.56
71081;BMP180;58740;50.672;18.690;2023-01-13T12:04:24;98398.80;;;9.50
71081;BMP180;58740;50.672;18.690;2023-01-13T12:06:37;98404.60;;;9.58
71081;BMP180;58740;50.672;18.690;2023-01-13T12:09:27;98397.40;;;9.60
71081;BMP180;58740;50.672;18.690;2023-01-13T12:21:25;98390.20;;;9.60
71081;BMP180;58740;50.672;18.690;2023-01-13T12:24:24;98392.60;;;9.56
71081;BMP180;58740;50.672;18.690;2023-01-13T12:27:05;98384.00;;;9.56
71081;BMP180;58740;50.672;18.690;2023-01-13T12:29:38;98389.20;;;9.60
71081;BMP180;58740;50.672;18.690;2023-01-13T12:32:13;98385.40;;;9.58
71081;BMP180;58740;50.672;18.690;2023-01-13T12:35:07;98384.00;;;9.56
71081;BMP180;58740;50.672;18.690;2023-01-13T12:37:56;98389.80;;;9.50
71081;BMP180;58740;50.672;18.690;2023-01-13T12:43:41;98385.80;;;9.50
71081;BMP180;58740;50.672;18.690;2023-01-13T12:57:20;98391.00;;;9.56
71081;BMP180;58740;50.672;18.690;2023-01-13T13:02:40;98390.80;;;9.50
71081;BMP180;58740;50.672;18.690;2023-01-13T13:05:40;98398.20;;;9.50
71081;BMP180;58740;50.672;18.690;2023-01-13T13:08:15;98397.60;;;9.46
71081;BMP180;58740;50.672;18.690;2023-01-13T13:14:10;98404.80;;;9.40
71081;BMP180;58740;50.672;18.690;2023-01-13T13:16:49;98406.20;;;9.40
71081;BMP180;58740;50.672;18.690;2023-01-13T13:30:33;98414.80;;;9.30
71081;BMP180;58740;50.672;18.690;2023-01-13T13:39:27;98419.80;;;9.24
71081;BMP180;58740;50.672;18.690;2023-01-13T13:42:27;98418.80;;;9.20
71081;BMP180;58740;50.672;18.690;2023-01-13T13:45:22;98421.80;;;9.20
71081;BMP180;58740;50.672;18.690;2023-01-13T13:51:20;98428.60;;;9.10
71081;BMP180;58740;50.672;18.690;2023-01-13T13:53:52;98420.80;;;9.10
71081;BMP180;58740;50.672;18.690;2023-01-13T13:56:26;98423.80;;;9.10
71081;BMP180;58740;50.672;18.690;2023-01-13T13:58:54;98423.40;;;9.00
71081;BMP180;58740;50.672;18.690;2023-01-13T14:01:36;98418.60;;;9.00
71081;BMP180;58740;50.672;18.690;2023-01-13T14:04:22;98422.20;;;9.00
71081;BMP180;58740;50.672;18.690;2023-01-13T14:07:22;98430.80;;;9.00
71081;BMP180;58740;50.672;18.690;2023-01-13T14:09:52;98423.60;;;9.00
71081;BMP180;58740;50.672;18.690;2023-01-13T14:12:25;98425.00;;;9.00
71081;BMP180;58740;50.672;18.690;2023-01-13T14:14:54;98434.60;;;9.00
71081;BMP180;58740;50.672;18.690;2023-01-13T14:17:29;98436.00;;;9.00
71081;BMP180;58740;50.672;18.690;2023-01-13T14:20:03;98441.40;;;9.00
71081;BMP180;58740;50.672;18.690;2023-01-13T14:22:32;98439.40;;;9.00
71081;BMP180;58740;50.672;18.690;2023-01-13T14:25:00;98441.80;;;9.00
71081;BMP180;58740;50.672;18.690;2023-01-13T14:27:29;98440.20;;;9.00
71081;BMP180;58740;50.672;18.690;2023-01-13T14:29:59;98445.20;;;8.90
71081;BMP180;58740;50.672;18.690;2023-01-13T14:32:34;98435.20;;;8.90
71081;BMP180;58740;50.672;18.690;2023-01-13T14:35:07;98441.80;;;8.90
71081;BMP180;58740;50.672;18.690;2023-01-13T14:37:39;98434.60;;;8.82
71081;BMP180;58740;50.672;18.690;2023-01-13T14:43:03;98448.40;;;8.80
71081;BMP180;58740;50.672;18.690;2023-01-13T14:45:35;98446.20;;;8.80
71081;BMP180;58740;50.672;18.690;2023-01-13T14:48:07;98448.80;;;8.80
71081;BMP180;58740;50.672;18.690;2023-01-13T14:50:35;98454.60;;;8.70
71081;BMP180;58740;50.672;18.690;2023-01-13T14:53:27;98454.60;;;8.70
71081;BMP180;58740;50.672;18.690;2023-01-13T14:55:56;98454.80;;;8.70
71081;BMP180;58740;50.672;18.690;2023-01-13T14:58:27;98447.80;;;8.64
71081;BMP180;58740;50.672;18.690;2023-01-13T15:01:32;98452.80;;;8.60
71081;BMP180;58740;50.672;18.690;2023-01-13T15:04:26;98462.80;;;8.60
71081;BMP180;58740;50.672;18.690;2023-01-13T15:06:59;98460.00;;;8.58
71081;BMP180;58740;50.672;18.690;2023-01-13T15:09:39;98465.80;;;8.50
71081;BMP180;58740;50.672;18.690;2023-01-13T15:12:38;98466.40;;;8.50
71081;BMP180;58740;50.672;18.690;2023-01-13T15:15:28;98469.20;;;8.50
71081;BMP180;58740;50.672;18.690;2023-01-13T15:18:14;98470.20;;;8.50
71081;BMP180;58740;50.672;18.690;2023-01-13T15:20:43;98479.20;;;8.50
71081;BMP180;58740;50.672;18.690;2023-01-13T15:23:12;98477.40;;;8.50
71081;BMP180;58740;50.672;18.690;2023-01-13T15:25:42;98483.20;;;8.50
71081;BMP180;58740;50.672;18.690;2023-01-13T15:28:30;98479.60;;;8.50
71081;BMP180;58740;50.672;18.690;2023-01-13T15:30:58;98476.60;;;8.50
71081;BMP180;58740;50.672;18.690;2023-01-13T15:33:28;98477.20;;;8.50
71081;BMP180;58740;50.672;18.690;2023-01-13T15:35:57;98476.80;;;8.50
71081;BMP180;58740;50.672;18.690;2023-01-13T15:38:25;98474.00;;;8.50
71081;BMP180;58740;50.672;18.690;2023-01-13T15:40:52;98483.00;;;8.50
71081;BMP180;58740;50.672;18.690;2023-01-13T15:43:22;98476.00;;;8.50
71081;BMP180;58740;50.672;18.690;2023-01-13T15:46:14;98481.80;;;8.50
71081;BMP180;58740;50.672;18.690;2023-01-13T15:49:26;98484.80;;;8.50
71081;BMP180;58740;50.672;18.690;2023-01-13T15:51:54;98479.20;;;8.50
71081;BMP180;58740;50.672;18.690;2023-01-13T15:54:22;98478.40;;;8.50
71081;BMP180;58740;50.672;18.690;2023-01-13T15:56:52;98481.00;;;8.60
71081;BMP180;58740;50.672;18.690;2023-01-13T15:59:25;98480.20;;;8.60
71081;BMP180;58740;50.672;18.690;2023-01-13T16:01:53;98481.80;;;8.60
71081;BMP180;58740;50.672;18.690;2023-01-13T16:04:21;98483.60;;;8.60
71081;BMP180;58740;50.672;18.690;2023-01-13T16:06:49;98480.00;;;8.60
71081;BMP180;58740;50.672;18.690;2023-01-13T16:09:17;98487.80;;;8.60
71081;BMP180;58740;50.672;18.690;2023-01-13T16:11:45;98487.60;;;8.60
71081;BMP180;58740;50.672;18.690;2023-01-13T16:14:13;98488.20;;;8.60
71081;BMP180;58740;50.672;18.690;2023-01-13T16:16:41;98486.40;;;8.60
71081;BMP180;58740;50.672;18.690;2023-01-13T16:19:10;98496.00;;;8.60
71081;BMP180;58740;50.672;18.690;2023-01-13T16:21:38;98496.80;;;8.60
71081;BMP180;58740;50.672;18.690;2023-01-13T16:24:07;98498.40;;;8.60
71081;BMP180;58740;50.672;18.690;2023-01-13T16:26:34;98494.20;;;8.60
71081;BMP180;58740;50.672;18.690;2023-01-13T16:29:05;98493.80;;;8.60
71081;BMP180;58740;50.672;18.690;2023-01-13T16:31:33;98507.00;;;8.60
71081;BMP180;58740;50.672;18.690;2023-01-13T16:34:03;98507.20;;;8.60
71081;BMP180;58740;50.672;18.690;2023-01-13T16:36:34;98504.20;;;8.60
71081;BMP180;58740;50.672;18.690;2023-01-13T16:39:04;98507.80;;;8.60